Time;durP1;ratioP1;P1;durP2;ratioP2;P2;SDS_P1;SDS_P2;PMS_P1;PMS_P2;Temp;Humidity;BMP_temperature;BMP_pressure;BME280_temperature;BME280_humidity;BME280_pressure;Samples;Min_cycle;Max_cycle;Signal;HPM_P1;HPM_P2
2022/05/28 00:01:16;;;;;;;13.75;4.93;;;;;;;20.43;60.47;100172.47;5055377;28;20139;-74
2022/05/28 00:03:42;;;;;;;19.65;4.57;;;;;;;20.44;60.12;100160.03;5055698;28;20056;-74
2022/05/28 00:06:11;;;;;;;9.23;4.55;;;;;;;20.18;59.41;100103.44;5055068;28;20048;-74
2022/05/28 00:08:36;;;;;;;9.15;4.93;;;;;;;20.63;59.84;100171.59;5055396;28;20063;-74
2022/05/28 00:11:18;;;;;;;10.30;4.72;;;;;;;20.17;60.87;100140.78;5052283;28;20048;-74
2022/05/28 00:13:44;;;;;;;6.03;4.30;;;;;;;20.46;60.96;100166.13;5042781;28;20041;-74
2022/05/28 00:16:11;;;;;;;6.20;4.03;;;;;;;20.42;60.13;100157.41;5042974;28;20583;-74
2022/05/28 00:18:38;;;;;;;7.80;4.63;;;;;;;20.39;60.53;100146.00;5043981;28;20040;-73
2022/05/28 00:21:04;;;;;;;13.23;5.45;;;;;;;19.99;61.89;100106.03;5046022;28;20056;-74
2022/05/28 00:23:31;;;;;;;5.43;4.47;;;;;;;20.22;62.13;100150.28;5042663;28;20100;-74
2022/05/28 00:26:04;;;;;;;9.38;4.88;;;;;;;20.21;61.99;100164.56;5046694;28;20527;-73
2022/05/28 00:28:30;;;;;;;9.02;5.35;;;;;;;20.26;62.40;100151.03;5044316;28;20060;-74
2022/05/28 00:30:55;;;;;;;8.07;4.93;;;;;;;20.07;63.33;100137.66;5046356;28;20049;-73
2022/05/28 00:33:23;;;;;;;10.55;4.57;;;;;;;19.39;63.20;100073.94;5046881;28;20409;-73
2022/05/28 00:35:50;;;;;;;6.82;4.28;;;;;;;20.02;62.86;100151.19;5042674;28;20164;-74
2022/05/28 00:38:18;;;;;;;7.00;4.63;;;;;;;19.98;63.79;100146.91;5047007;28;20121;-74
2022/05/28 00:40:49;;;;;;;10.63;4.68;;;;;;;19.68;63.58;100111.81;5046198;28;20044;-74
2022/05/28 00:43:15;;;;;;;8.23;5.07;;;;;;;20.13;62.21;100140.03;5046441;28;20045;-74
2022/05/28 00:45:43;;;;;;;9.90;4.57;;;;;;;20.01;62.45;100130.78;5049030;28;20429;-74
2022/05/28 00:48:11;;;;;;;7.55;4.55;;;;;;;19.34;63.55;100070.63;5044896;28;20051;-73
2022/05/28 00:50:38;;;;;;;12.07;5.22;;;;;;;19.67;64.15;100131.34;5046649;28;20048;-73
2022/05/28 00:53:05;;;;;;;8.48;4.45;;;;;;;19.24;64.77;100074.56;5042882;28;20123;-74
2022/05/28 00:55:33;;;;;;;9.07;4.78;;;;;;;19.58;65.08;100134.41;5044138;28;20103;-74
2022/05/28 00:58:01;;;;;;;6.00;4.50;;;;;;;19.61;64.65;100128.94;5046800;28;20124;-74
2022/05/28 01:00:29;;;;;;;8.07;5.45;;;;;;;19.67;65.01;100139.34;5045189;28;20044;-74
2022/05/28 01:03:38;;;;;;;12.32;5.20;;;;;;;19.69;66.22;100134.84;5048493;28;20029;-73
2022/05/28 01:06:14;;;;;;;17.63;5.03;;;;;;;19.15;66.89;100067.88;4986619;28;20138;-74
2022/05/28 01:09:08;;;;;;;7.35;4.35;;;;;;;19.05;68.46;100073.59;4987313;28;20517;-74
2022/05/28 01:11:38;;;;;;;7.45;4.43;;;;;;;19.28;68.80;100132.06;5040380;28;20498;-73
2022/05/28 01:14:22;;;;;;;10.90;5.40;;;;;;;19.00;68.33;100095.06;5069160;28;20539;-73
2022/05/28 01:16:55;;;;;;;13.13;5.68;;;;;;;19.00;68.78;100105.69;5066785;28;20048;-74
2022/05/28 01:19:26;;;;;;;11.23;5.60;;;;;;;19.28;69.06;100141.84;5070819;28;20052;-74
2022/05/28 01:22:12;;;;;;;7.25;4.45;;;;;;;19.20;69.83;100158.13;5066910;28;20155;-74
2022/05/28 01:24:47;;;;;;;8.70;5.45;;;;;;;18.95;69.95;100120.97;5067230;28;20059;-74
2022/05/28 01:27:18;;;;;;;10.10;4.65;;;;;;;18.93;70.36;100136.13;5066544;28;20049;-73
2022/05/28 01:29:51;;;;;;;23.85;6.43;;;;;;;18.92;70.63;100135.25;5063895;28;20112;-74
2022/05/28 01:32:18;;;;;;;9.95;6.10;;;;;;;18.71;71.52;100113.00;5067824;28;20117;-74
2022/05/28 01:34:46;;;;;;;13.15;6.20;;;;;;;18.05;71.24;100001.28;5063114;28;20139;-77
2022/05/28 01:37:12;;;;;;;11.60;5.80;;;;;;;18.85;71.52;100128.44;5066381;28;20075;-74
2022/05/28 01:39:41;;;;;;;12.10;5.32;;;;;;;18.39;71.55;100074.34;5065367;28;20062;-73
2022/05/28 01:42:10;;;;;;;11.93;5.38;;;;;;;18.72;71.90;100128.00;5065328;28;20044;-73
2022/05/28 01:44:39;;;;;;;11.82;5.50;;;;;;;18.83;71.04;100145.41;5063125;28;20032;-73
2022/05/28 01:47:05;;;;;;;9.10;5.35;;;;;;;18.76;71.22;100131.44;5064623;28;20078;-73
2022/05/28 01:49:33;;;;;;;8.25;5.93;;;;;;;18.09;71.39;100053.31;5060569;28;20048;-73
2022/05/28 01:52:01;;;;;;;12.75;6.28;;;;;;;18.65;72.71;100123.00;5062447;28;20133;-73
2022/05/28 01:54:34;;;;;;;13.48;6.28;;;;;;;18.20;72.17;100062.69;5062884;28;20040;-73
2022/05/28 01:57:00;;;;;;;12.80;5.05;;;;;;;18.63;71.92;100135.47;5059746;28;20044;-73
2022/05/28 01:59:30;;;;;;;12.90;7.30;;;;;;;18.48;71.60;100139.56;5061781;28;20116;-73
2022/05/28 02:02:06;;;;;;;10.52;4.32;;;;;;;18.64;71.91;100143.41;5060175;28;20052;-73
2022/05/28 02:04:34;;;;;;;8.55;5.80;;;;;;;18.63;72.20;100146.97;5061634;28;20160;-74
2022/05/28 02:07:02;;;;;;;11.63;6.28;;;;;;;18.63;72.91;100135.47;5064412;28;20055;-73
2022/05/28 02:09:36;;;;;;;13.23;6.40;;;;;;;18.72;72.39;100140.44;5062735;28;20087;-72
2022/05/28 02:12:16;;;;;;;18.17;6.30;;;;;;;18.01;72.85;100065.16;5063924;28;20049;-73
2022/05/28 02:14:54;;;;;;;11.27;5.28;;;;;;;17.58;72.79;99998.50;5060486;28;20039;-74
2022/05/28 02:18:06;;;;;;;12.55;6.55;;;;;;;17.98;73.22;100063.50;5064283;28;20036;-74
2022/05/28 02:20:44;;;;;;;8.70;5.60;;;;;;;18.54;72.88;100131.34;5035921;28;20049;-73
2022/05/28 02:23:10;;;;;;;14.55;6.15;;;;;;;18.51;73.09;100166.03;5064076;28;20039;-74
2022/05/28 02:25:58;;;;;;;12.55;5.63;;;;;;;18.52;73.03;100136.75;5062244;28;21199;-73
2022/05/28 02:28:25;;;;;;;13.55;7.22;;;;;;;18.52;72.98;100111.97;5060450;28;20056;-74
2022/05/28 02:30:54;;;;;;;11.38;6.90;;;;;;;18.59;71.77;100133.84;5059042;28;20135;-73
2022/05/28 02:33:20;;;;;;;14.35;7.57;;;;;;;18.50;72.88;100119.13;5058581;28;20551;-74
2022/05/28 02:35:47;;;;;;;10.63;7.03;;;;;;;18.39;72.76;100108.03;5058163;28;20032;-74
2022/05/28 02:38:14;;;;;;;9.35;5.93;;;;;;;18.28;73.55;100096.00;5062568;28;20040;-74
2022/05/28 02:40:41;;;;;;;11.90;6.05;;;;;;;18.40;72.89;100105.31;5061258;28;20056;-74
2022/05/28 02:43:06;;;;;;;18.10;7.10;;;;;;;18.39;73.39;100131.94;5061294;28;20044;-74
2022/05/28 02:45:32;;;;;;;10.35;5.10;;;;;;;17.83;72.86;100050.75;5063326;28;20102;-74
2022/05/28 02:47:59;;;;;;;9.38;4.88;;;;;;;18.52;73.29;100131.44;5061871;28;20052;-74
2022/05/28 02:50:26;;;;;;;11.68;6.20;;;;;;;18.47;72.98;100095.31;5063269;28;20044;-74
2022/05/28 02:52:52;;;;;;;11.93;6.60;;;;;;;18.42;72.95;100119.41;5061673;28;20044;-74
2022/05/28 02:55:18;;;;;;;11.80;4.97;;;;;;;18.09;71.62;100050.66;5062383;28;20032;-74
2022/05/28 02:57:45;;;;;;;14.00;7.00;;;;;;;18.42;72.42;100131.81;5063661;28;20056;-74
2022/05/28 03:00:14;;;;;;;11.60;6.28;;;;;;;18.57;73.26;100133.91;5060591;28;20048;-74
2022/05/28 03:02:43;;;;;;;15.32;6.10;;;;;;;18.07;73.01;100062.25;5061660;28;20115;-74
2022/05/28 03:05:12;;;;;;;14.20;8.07;;;;;;;18.14;71.86;100082.34;5061429;28;20055;-74
2022/05/28 03:07:38;;;;;;;10.27;6.60;;;;;;;18.43;71.88;100113.19;5062432;28;20051;-74
2022/05/28 03:10:05;;;;;;;12.00;7.25;;;;;;;18.51;71.27;100107.56;5060896;28;20412;-74
2022/05/28 03:12:31;;;;;;;18.88;6.82;;;;;;;18.43;71.23;100086.59;5062574;28;20040;-74
2022/05/28 03:14:56;;;;;;;11.63;6.45;;;;;;;18.98;69.72;100136.81;5055379;28;20040;-74
2022/05/28 03:17:22;;;;;;;14.43;6.70;;;;;;;19.13;69.91;100138.88;5061616;28;20051;-75
2022/05/28 03:19:48;;;;;;;10.45;6.82;;;;;;;18.76;69.43;100081.81;5062154;28;20506;-74
2022/05/28 03:22:14;;;;;;;22.92;7.18;;;;;;;18.74;69.66;100107.56;5056721;28;20045;-74
2022/05/28 03:24:39;;;;;;;13.88;7.57;;;;;;;18.68;71.24;100088.31;5051996;28;20044;-73
2022/05/28 03:27:05;;;;;;;18.33;7.00;;;;;;;19.24;68.69;100162.38;5061932;28;20055;-73
2022/05/28 03:29:38;;;;;;;25.83;8.15;;;;;;;18.74;69.71;100088.09;5063963;28;20033;-73
2022/05/28 03:32:04;;;;;;;10.95;7.05;;;;;;;19.25;70.78;100149.97;5063109;28;20045;-73
2022/05/28 03:34:30;;;;;;;10.07;6.28;;;;;;;19.41;70.96;100169.69;5061996;28;20099;-74
2022/05/28 03:36:57;;;;;;;13.68;6.80;;;;;;;19.41;71.52;100167.03;5062170;28;20118;-73
2022/05/28 03:39:22;;;;;;;11.65;6.93;;;;;;;19.29;71.55;100152.44;5061008;28;20036;-73
2022/05/28 03:41:48;;;;;;;14.60;7.18;;;;;;;19.38;71.79;100164.47;5061640;28;20047;-73
2022/05/28 03:44:13;;;;;;;8.88;5.25;;;;;;;19.47;71.27;100173.88;5062488;28;20059;-73
2022/05/28 03:46:39;;;;;;;8.45;5.82;;;;;;;19.49;72.29;100177.34;5059241;28;20565;-73
2022/05/28 03:49:21;;;;;;;10.90;6.25;;;;;;;19.29;72.92;100167.50;5059251;28;20135;-74
2022/05/28 03:51:47;;;;;;;9.38;6.22;;;;;;;19.26;71.99;100167.63;5061594;28;20048;-75
2022/05/28 03:54:13;;;;;;;15.02;6.65;;;;;;;19.02;70.30;100145.53;5060932;28;20101;-74
2022/05/28 03:56:41;;;;;;;13.38;6.00;;;;;;;19.17;68.67;100168.84;5064170;28;20395;-73
2022/05/28 03:59:08;;;;;;;7.68;4.20;;;;;;;18.95;65.57;100131.63;5064047;28;20055;-74
2022/05/28 04:01:40;;;;;;;19.95;5.28;;;;;;;19.20;65.21;100187.38;5061557;28;20067;-74
2022/05/28 04:04:07;;;;;;;14.15;4.57;;;;;;;19.13;64.12;100180.56;5065264;28;20048;-74
2022/05/28 04:06:35;;;;;;;7.47;4.20;;;;;;;18.21;63.95;100029.88;5066793;28;20104;-74
2022/05/28 04:09:02;;;;;;;9.00;4.78;;;;;;;19.31;62.98;100179.81;5066143;28;21329;-73
2022/05/28 04:11:28;;;;;;;5.68;3.47;;;;;;;19.34;63.01;100177.06;5066485;28;20412;-73
2022/05/28 04:13:54;;;;;;;13.82;4.55;;;;;;;19.34;64.18;100185.03;5064610;28;20048;-74
2022/05/28 04:16:21;;;;;;;8.45;4.22;;;;;;;18.93;65.35;100123.69;5066955;28;20093;-74
2022/05/28 04:18:47;;;;;;;20.95;9.77;;;;;;;18.97;63.96;100116.47;5061648;28;20509;-74
2022/05/28 04:21:13;;;;;;;11.30;5.38;;;;;;;19.49;64.75;100188.88;5061600;28;20518;-74
2022/05/28 04:23:38;;;;;;;5.15;3.60;;;;;;;19.52;66.19;100183.41;5059390;28;20731;-74
2022/05/28 04:26:04;;;;;;;12.10;4.80;;;;;;;19.52;67.69;100202.03;5060166;28;20447;-73
2022/05/28 04:28:29;;;;;;;7.13;4.65;;;;;;;19.24;67.09;100137.56;5059300;28;20063;-74
2022/05/28 04:30:55;;;;;;;18.60;5.10;;;;;;;19.56;67.63;100176.19;5062877;28;20036;-75
2022/05/28 04:33:23;;;;;;;6.82;4.97;;;;;;;19.48;67.56;100173.84;5059236;28;20125;-74
2022/05/28 04:35:48;;;;;;;6.97;4.10;;;;;;;19.74;64.08;100177.25;5062236;28;20044;-74
2022/05/28 04:38:14;;;;;;;7.95;4.32;;;;;;;19.83;66.19;100184.88;5064870;28;20090;-75
2022/05/28 04:40:39;;;;;;;9.43;5.20;;;;;;;19.68;66.68;100177.47;5063569;28;20468;-75
2022/05/28 04:43:05;;;;;;;10.75;3.92;;;;;;;19.79;66.93;100185.91;5066208;28;20360;-74
2022/05/28 04:45:30;;;;;;;6.50;4.18;;;;;;;20.03;63.73;100181.34;5063146;28;20064;-74
2022/05/28 04:47:56;;;;;;;16.60;6.70;;;;;;;19.95;64.02;100192.31;5067273;28;20630;-74
2022/05/28 04:50:22;;;;;;;19.70;5.43;;;;;;;19.82;63.99;100169.81;5066863;28;20034;-74
2022/05/28 04:52:48;;;;;;;10.60;6.18;;;;;;;19.93;63.48;100190.66;5063741;28;20154;-75
2022/05/28 04:55:13;;;;;;;7.50;4.80;;;;;;;19.60;62.31;100138.72;5060787;28;20709;-74
2022/05/28 04:57:39;;;;;;;6.18;4.53;;;;;;;20.01;64.95;100191.19;5060599;28;20106;-75
2022/05/28 05:00:13;;;;;;;12.48;5.40;;;;;;;20.00;62.36;100182.34;5064464;28;20059;-74
2022/05/28 05:02:39;;;;;;;9.35;4.85;;;;;;;19.85;63.92;100190.09;5061298;28;20057;-76
2022/05/28 05:05:05;;;;;;;8.27;5.13;;;;;;;19.54;63.68;100125.66;5064331;28;20033;-73
2022/05/28 05:07:31;;;;;;;10.50;5.53;;;;;;;20.23;63.08;100191.16;5062173;28;20059;-73
2022/05/28 05:09:56;;;;;;;11.77;5.65;;;;;;;20.17;61.75;100178.09;5062774;28;20435;-73
2022/05/28 05:12:22;;;;;;;8.00;5.15;;;;;;;20.52;64.10;100181.00;5063761;28;20094;-74
2022/05/28 05:14:47;;;;;;;15.95;5.32;;;;;;;20.72;62.95;100183.66;5064671;28;20492;-74
2022/05/28 05:17:13;;;;;;;10.57;5.47;;;;;;;20.99;63.23;100185.97;5064211;28;20098;-74
2022/05/28 05:19:38;;;;;;;8.88;5.72;;;;;;;21.16;60.96;100193.19;5057221;28;20515;-74
2022/05/28 05:22:04;;;;;;;8.80;5.18;;;;;;;21.27;62.26;100194.41;5056878;28;20052;-74
2022/05/28 05:24:33;;;;;;;23.15;9.10;;;;;;;21.34;60.32;100183.44;5062688;28;20052;-73
2022/05/28 05:26:59;;;;;;;12.13;6.65;;;;;;;21.13;60.09;100129.31;5066871;28;20078;-73
2022/05/28 05:29:25;;;;;;;12.10;7.05;;;;;;;21.56;59.30;100161.91;5065866;28;20784;-73
2022/05/28 05:31:50;;;;;;;13.68;6.93;;;;;;;22.06;58.30;100202.13;5064621;28;20120;-73
2022/05/28 05:34:16;;;;;;;34.13;7.85;;;;;;;21.99;58.33;100200.72;5062105;28;20041;-74
2022/05/28 05:36:43;;;;;;;13.68;7.60;;;;;;;21.64;61.04;100179.31;5065527;28;20071;-74
2022/05/28 05:39:08;;;;;;;13.85;8.63;;;;;;;21.90;58.60;100166.44;5065263;28;20067;-73
2022/05/28 05:41:38;;;;;;;13.15;7.88;;;;;;;22.21;58.61;100175.59;5063638;28;20036;-74
2022/05/28 05:44:04;;;;;;;13.38;7.85;;;;;;;22.10;58.83;100112.84;5064980;28;20045;-73
2022/05/28 05:46:30;;;;;;;12.40;8.30;;;;;;;22.95;56.54;100183.22;5063977;28;20044;-73
2022/05/28 05:48:55;;;;;;;31.00;12.70;;;;;;;23.14;56.89;100177.72;5062712;28;20052;-73
2022/05/28 05:51:21;;;;;;;17.33;9.45;;;;;;;23.00;55.16;100173.13;5064406;28;20506;-73
2022/05/28 05:53:46;;;;;;;17.92;10.52;;;;;;;22.96;56.77;100166.19;5064384;28;20029;-74
2022/05/28 05:56:11;;;;;;;19.60;10.90;;;;;;;22.85;55.69;100174.81;5062958;28;20161;-73
2022/05/28 05:58:38;;;;;;;20.80;10.20;;;;;;;23.16;55.49;100175.84;5063153;28;20040;-73
2022/05/28 06:01:05;;;;;;;18.52;8.85;;;;;;;23.36;56.17;100167.50;5060410;28;20064;-75
2022/05/28 06:03:31;;;;;;;14.13;9.02;;;;;;;23.00;55.98;100097.34;5060945;28;20044;-73
2022/05/28 06:05:58;;;;;;;19.63;10.55;;;;;;;23.44;56.68;100176.94;5055061;28;20052;-73
2022/05/28 06:08:24;;;;;;;19.55;8.55;;;;;;;23.69;54.54;100174.56;5044457;28;20055;-73
2022/05/28 06:10:50;;;;;;;12.35;8.52;;;;;;;23.83;55.77;100186.31;5036970;28;20049;-74
2022/05/28 06:13:15;;;;;;;13.88;9.45;;;;;;;24.02;53.91;100171.75;5052676;28;20052;-73
2022/05/28 06:15:41;;;;;;;14.15;9.02;;;;;;;24.16;53.99;100170.94;5063645;28;20041;-74
2022/05/28 06:18:08;;;;;;;17.55;9.48;;;;;;;23.86;52.96;100116.44;5066021;28;20480;-73
2022/05/28 06:20:34;;;;;;;17.80;12.25;;;;;;;24.04;53.83;100112.66;5066615;28;20487;-74
2022/05/28 06:23:01;;;;;;;71.35;18.83;;;;;;;24.29;55.15;100179.06;5062867;28;20060;-74
2022/05/28 06:25:27;;;;;;;14.45;11.88;;;;;;;24.25;51.38;100180.22;5061974;28;20049;-74
2022/05/28 06:27:53;;;;;;;27.33;14.02;;;;;;;24.28;51.14;100163.06;5065432;28;20129;-74
2022/05/28 06:30:22;;;;;;;20.27;13.45;;;;;;;24.04;53.15;100158.25;5065084;28;20056;-73
2022/05/28 06:32:48;;;;;;;17.65;12.40;;;;;;;24.12;52.64;100155.97;5063176;28;20032;-73
2022/05/28 06:35:13;;;;;;;24.58;13.10;;;;;;;24.19;52.91;100153.78;5061859;28;20040;-74
2022/05/28 06:37:39;;;;;;;24.55;13.38;;;;;;;24.26;52.27;100155.13;5060042;28;20048;-74
2022/05/28 06:40:06;;;;;;;17.80;11.23;;;;;;;24.18;52.80;100150.22;5064024;28;20477;-74
2022/05/28 06:42:32;;;;;;;16.67;12.00;;;;;;;23.63;51.79;100145.47;5060500;28;20060;-74
2022/05/28 06:44:58;;;;;;;15.23;12.02;;;;;;;23.91;52.14;100087.59;5063309;28;20048;-74
2022/05/28 06:47:23;;;;;;;24.52;12.00;;;;;;;24.56;51.83;100133.63;5062228;28;20510;-74
2022/05/28 06:51:01;;;;;;;36.03;11.23;;;;;;;24.48;51.32;100109.09;5062297;28;20083;-73
2022/05/28 06:52:34;;;;;;;13.75;8.88;;;;;;;24.46;52.29;100126.22;5062582;28;20112;-73
2022/05/28 06:55:00;;;;;;;15.07;9.93;;;;;;;24.46;52.27;100121.69;5061959;28;20191;-73
2022/05/28 06:57:25;;;;;;;11.35;7.63;;;;;;;24.49;52.07;100124.25;5061309;28;20260;-73
2022/05/28 06:59:51;;;;;;;17.65;8.55;;;;;;;24.51;51.60;100116.94;5062855;28;20032;-74
2022/05/28 07:02:16;;;;;;;11.52;7.45;;;;;;;24.58;51.63;100128.16;5055634;28;20080;-73
2022/05/28 07:04:44;;;;;;;13.90;7.20;;;;;;;23.84;50.46;100124.59;5060128;28;20048;-75
2022/05/28 07:07:09;;;;;;;22.20;7.95;;;;;;;23.78;51.37;100045.44;5057248;28;20140;-74
2022/05/28 07:09:35;;;;;;;9.00;7.05;;;;;;;24.28;50.79;100121.03;5054860;28;20535;-74
2022/05/28 07:12:00;;;;;;;18.95;5.88;;;;;;;23.92;51.60;100118.78;5054780;28;20052;-74
2022/05/28 07:14:26;;;;;;;20.08;8.27;;;;;;;23.72;52.41;100094.00;5059364;28;20055;-72
2022/05/28 07:16:51;;;;;;;41.80;6.45;;;;;;;23.32;53.38;100055.31;5057943;28;20464;-73
2022/05/28 07:19:17;;;;;;;20.70;9.15;;;;;;;23.93;53.39;100118.69;5057960;28;20045;-73
2022/05/28 07:21:42;;;;;;;17.67;7.28;;;;;;;23.76;51.79;100057.19;5059096;28;20053;-74
2022/05/28 07:24:08;;;;;;;10.15;5.80;;;;;;;24.08;51.89;100108.84;5060740;28;20151;-73
2022/05/28 07:26:33;;;;;;;19.23;6.47;;;;;;;23.90;51.75;100091.19;5062780;28;20472;-74
2022/05/28 07:28:59;;;;;;;10.85;6.75;;;;;;;23.57;52.09;100055.59;5062283;28;20044;-73
2022/05/28 07:31:25;;;;;;;12.13;5.70;;;;;;;24.06;51.97;100115.25;5062345;28;20040;-73
2022/05/28 07:33:50;;;;;;;14.82;5.95;;;;;;;23.91;51.92;100069.69;5061424;28;20036;-73
2022/05/28 07:36:19;;;;;;;25.67;6.60;;;;;;;24.06;51.97;100064.34;5057305;28;20156;-74
2022/05/28 07:38:45;;;;;;;17.20;5.70;;;;;;;24.54;51.84;100124.81;5061025;28;20067;-74
2022/05/28 07:41:18;;;;;;;10.57;5.30;;;;;;;24.33;51.57;100075.16;5062650;28;20036;-74
2022/05/28 07:43:44;;;;;;;24.42;7.32;;;;;;;23.94;50.87;100068.63;5059788;28;20058;-78
2022/05/28 07:46:19;;;;;;;13.45;5.47;;;;;;;24.46;51.63;100128.91;5059634;28;20041;-79
2022/05/28 07:48:44;;;;;;;16.60;6.07;;;;;;;24.26;50.82;100072.00;5059024;28;20055;-78
2022/05/28 07:51:10;;;;;;;16.30;5.05;;;;;;;24.32;52.19;100065.38;5055168;28;21259;-79
2022/05/28 07:53:36;;;;;;;20.25;6.43;;;;;;;23.88;51.29;100045.75;5053918;28;20028;-82
2022/05/28 07:56:03;;;;;;;9.13;5.55;;;;;;;24.44;49.39;100064.59;5056462;28;20051;-75
2022/05/28 07:58:29;;;;;;;27.23;5.75;;;;;;;25.16;50.20;100131.63;5058241;28;20048;-75
2022/05/28 08:00:55;;;;;;;7.10;3.95;;;;;;;24.70;49.23;100123.84;5061449;28;20518;-75
2022/05/28 08:03:20;;;;;;;11.25;4.88;;;;;;;24.50;48.92;100082.19;5064314;28;20089;-73
2022/05/28 08:05:49;;;;;;;14.52;4.30;;;;;;;24.17;51.49;100060.03;5061834;28;20048;-74
2022/05/28 08:08:16;;;;;;;10.45;4.53;;;;;;;24.93;50.69;100112.47;5065821;28;20100;-75
2022/05/28 08:10:42;;;;;;;8.68;4.13;;;;;;;24.89;51.25;100126.19;5064738;28;20075;-76
2022/05/28 08:13:19;;;;;;;10.63;5.38;;;;;;;24.77;47.75;100053.59;5057940;28;21673;-74
2022/05/28 08:15:46;;;;;;;10.88;5.60;;;;;;;25.75;48.57;100118.72;5064993;28;20105;-75
2022/05/28 08:18:16;;;;;;;8.30;4.10;;;;;;;25.57;47.20;100047.44;5061821;28;20060;-75
2022/05/28 08:23:27;;;;;;;5.30;3.17;;;;;;;25.89;45.37;100053.31;5064451;28;20570;-74
2022/05/28 08:25:52;;;;;;;8.48;3.60;;;;;;;25.44;46.21;100059.00;5062948;28;20032;-74
2022/05/28 08:28:29;;;;;;;9.98;3.25;;;;;;;26.05;45.08;100110.41;5062921;28;20624;-74
2022/05/28 08:30:54;;;;;;;14.05;6.13;;;;;;;25.87;45.91;100058.81;5064444;28;20068;-75
2022/05/28 08:33:21;;;;;;;6.97;3.80;;;;;;;26.51;46.56;100058.75;5060465;28;20076;-75
2022/05/28 08:35:50;;;;;;;4.78;3.58;;;;;;;26.82;45.93;100083.47;5061078;28;20033;-76
2022/05/28 08:38:19;;;;;;;8.90;3.53;;;;;;;26.22;43.86;100059.97;5065736;28;20029;-77
2022/05/28 08:40:49;;;;;;;6.78;4.15;;;;;;;25.97;43.81;100053.66;5062358;28;20480;-75
2022/05/28 08:43:18;;;;;;;11.05;4.93;;;;;;;26.46;45.86;100068.13;5061769;28;20134;-74
2022/05/28 08:45:48;;;;;;;6.35;3.50;;;;;;;26.89;43.17;100047.03;5065467;28;20058;-75
2022/05/28 08:48:23;;;;;;;7.22;2.85;;;;;;;27.26;41.35;100098.22;5061979;28;20507;-73
2022/05/28 08:51:01;;;;;;;12.50;6.20;;;;;;;27.55;43.29;100097.84;5063609;28;20036;-74
2022/05/28 08:53:33;;;;;;;8.35;3.65;;;;;;;27.68;40.34;100103.16;5065741;28;20022;-75
2022/05/28 08:56:05;;;;;;;15.02;4.18;;;;;;;27.35;40.45;100059.78;5061651;28;20138;-74
2022/05/28 08:58:33;;;;;;;14.48;7.20;;;;;;;27.31;43.02;100068.22;5068243;28;20151;-75
2022/05/28 09:01:02;;;;;;;12.85;6.40;;;;;;;27.27;43.67;100088.28;5059893;28;20053;-75
2022/05/28 09:03:43;;;;;;;7.88;3.90;;;;;;;27.88;42.25;100077.38;5059508;28;20568;-75
2022/05/28 09:06:17;;;;;;;12.30;4.82;;;;;;;27.51;42.72;100078.38;5054590;28;20052;-75
2022/05/28 09:08:50;;;;;;;12.68;4.68;;;;;;;27.21;40.90;100019.56;5057789;28;20542;-74
2022/05/28 09:11:17;;;;;;;15.40;6.63;;;;;;;27.53;43.61;100049.47;5060055;28;20442;-74
2022/05/28 09:13:48;;;;;;;7.43;3.47;;;;;;;27.50;42.01;100082.00;5063235;28;20051;-75
2022/05/28 09:16:24;;;;;;;10.55;4.53;;;;;;;26.37;42.53;100020.38;5063830;28;20056;-74
2022/05/28 09:18:52;;;;;;;7.10;4.25;;;;;;;27.02;41.86;100075.75;5061180;28;20056;-74
2022/05/28 09:21:18;;;;;;;12.40;6.07;;;;;;;26.78;42.30;100014.66;5063836;28;20078;-74
2022/05/28 09:23:50;;;;;;;11.63;6.47;;;;;;;27.25;42.81;100033.66;5059740;28;20482;-74
2022/05/28 09:26:31;;;;;;;9.10;4.53;;;;;;;27.17;46.52;100026.13;5060652;28;20123;-74
2022/05/28 09:29:17;;;;;;;12.27;4.50;;;;;;;26.45;44.78;100020.66;5058932;28;20048;-75
2022/05/28 09:32:31;;;;;;;9.98;4.88;;;;;;;27.22;46.54;100075.16;5062189;28;20048;-74
2022/05/28 09:35:20;;;;;;;7.18;4.60;;;;;;;27.23;46.01;100070.63;5023509;28;20115;-74
2022/05/28 09:38:09;;;;;;;11.20;6.13;;;;;;;27.02;46.74;100091.91;5056469;28;20174;-74
2022/05/28 09:40:45;;;;;;;6.75;5.15;;;;;;;26.76;46.35;100069.59;5060626;28;20053;-75
2022/05/28 09:43:44;;;;;;;13.55;6.95;;;;;;;27.51;45.20;100075.66;5059463;28;20045;-76
2022/05/28 09:46:23;;;;;;;9.38;4.63;;;;;;;27.99;44.70;100039.66;5061318;28;20040;-76
2022/05/28 09:48:59;;;;;;;13.80;5.07;;;;;;;27.24;44.28;100015.78;5061663;28;20048;-76
2022/05/28 09:51:28;;;;;;;25.20;6.63;;;;;;;27.11;45.19;100037.34;5061666;28;20032;-75
2022/05/28 09:54:17;;;;;;;24.35;6.75;;;;;;;27.10;45.69;100074.22;5060429;28;20047;-76
2022/05/28 09:57:01;;;;;;;8.80;4.97;;;;;;;26.31;45.88;99976.78;5059513;28;20081;-75
2022/05/28 09:59:37;;;;;;;10.57;5.05;;;;;;;26.90;46.21;100058.66;5059218;28;20071;-75
2022/05/28 10:02:29;;;;;;;13.07;4.85;;;;;;;27.21;47.67;100030.34;5041614;28;20494;-75
2022/05/28 10:05:08;;;;;;;8.20;3.97;;;;;;;27.42;44.12;100068.28;5062921;28;20147;-75
2022/05/28 10:07:41;;;;;;;12.05;5.85;;;;;;;27.74;44.09;100025.34;5060977;28;20063;-73
2022/05/28 10:10:22;;;;;;;12.00;7.43;;;;;;;27.78;44.10;100007.09;5057446;28;20052;-75
2022/05/28 10:12:49;;;;;;;11.80;7.78;;;;;;;28.69;45.74;100054.75;5052320;28;20048;-74
2022/05/28 10:15:23;;;;;;;20.02;12.02;;;;;;;28.49;41.54;100001.50;5056907;28;20094;-79
2022/05/28 10:17:54;;;;;;;23.25;11.15;;;;;;;29.56;40.34;100060.13;5057159;28;20046;-73
2022/05/28 10:20:21;;;;;;;13.55;6.38;;;;;;;29.36;40.12;99996.97;5062400;28;20468;-73
2022/05/28 10:22:49;;;;;;;18.13;9.85;;;;;;;30.29;37.76;100023.16;5060437;28;20197;-73
2022/05/28 10:25:35;;;;;;;24.65;12.57;;;;;;;30.12;36.71;100056.25;5055101;28;20057;-73
2022/05/28 10:28:02;;;;;;;23.83;15.43;;;;;;;30.35;37.61;100024.47;5052296;28;20184;-73
2022/05/28 10:30:41;;;;;;;19.55;6.72;;;;;;;29.78;38.21;100045.69;5055671;28;20606;-74
2022/05/28 10:33:16;;;;;;;25.25;10.55;;;;;;;28.93;38.55;99997.00;5059081;28;20099;-72
2022/05/28 10:35:47;;;;;;;32.83;14.20;;;;;;;29.50;38.82;99976.88;5057290;28;20034;-71
2022/05/28 10:38:18;;;;;;;65.85;26.75;;;;;;;29.59;40.01;99970.63;5061056;28;20044;-72
2022/05/28 10:40:51;;;;;;;15.45;7.15;;;;;;;28.96;40.18;99988.63;5057535;28;20078;-72
2022/05/28 10:43:38;;;;;;;20.10;9.10;;;;;;;28.84;42.03;100001.31;5060395;28;21409;-72
2022/05/28 10:46:35;;;;;;;16.35;10.98;;;;;;;28.93;43.45;100029.41;5057643;28;20835;-73
2022/05/28 10:49:16;;;;;;;36.70;19.38;;;;;;;29.08;40.08;99974.13;5059560;28;20052;-72
2022/05/28 10:52:03;;;;;;;24.20;10.38;;;;;;;28.90;38.57;100026.97;5061435;28;20491;-73
2022/05/28 10:54:56;;;;;;;67.93;22.83;;;;;;;29.61;38.82;99956.97;5056151;28;21078;-73
2022/05/28 10:57:57;;;;;;;40.97;19.67;;;;;;;30.01;39.41;99962.47;5058519;28;20044;-73
2022/05/28 11:00:35;;;;;;;13.85;5.95;;;;;;;29.53;38.90;100000.91;5059022;28;20086;-72
2022/05/28 11:03:10;;;;;;;74.68;24.73;;;;;;;28.94;36.91;99993.28;5059369;28;20062;-72
2022/05/28 11:05:57;;;;;;;76.43;23.38;;;;;;;29.42;37.24;100000.97;5061323;28;20047;-73
2022/05/28 11:08:41;;;;;;;80.45;27.42;;;;;;;29.58;40.34;99993.25;5062099;28;20133;-72
2022/05/28 11:11:24;;;;;;;35.92;14.20;;;;;;;30.06;37.34;99994.53;5060625;28;20086;-73
2022/05/28 11:14:16;;;;;;;78.18;27.92;;;;;;;29.82;38.49;99963.25;5062514;28;20056;-73
2022/05/28 11:17:14;;;;;;;38.70;16.83;;;;;;;29.64;35.34;99990.03;5053865;28;20105;-72
2022/05/28 11:20:28;;;;;;;28.45;9.82;;;;;;;30.24;35.33;99981.22;5058440;28;20062;-72
2022/05/28 11:23:00;;;;;;;42.75;16.75;;;;;;;30.34;33.15;99995.66;5046090;28;20285;-72
2022/05/28 11:26:13;;;;;;;36.22;13.45;;;;;;;29.28;34.20;99983.22;5053515;28;20144;-72
2022/05/28 11:29:16;;;;;;;29.00;10.27;;;;;;;29.86;34.89;99921.41;4988274;28;20038;-73
2022/05/28 11:31:53;;;;;;;39.13;13.18;;;;;;;30.39;35.28;99920.34;5059370;28;20057;-72
2022/05/28 11:34:23;;;;;;;15.02;6.80;;;;;;;30.19;34.44;99967.25;5058208;28;20072;-73
2022/05/28 11:37:14;;;;;;;8.35;3.38;;;;;;;29.46;35.24;99970.00;5058598;28;20802;-72
2022/05/28 11:39:48;;;;;;;12.00;6.28;;;;;;;29.27;36.64;99897.75;5049986;28;20040;-73